Hayt Corners, New York
Current Conditions -  °F | °C
As of 12:53 AM on Thursday 29 Jan 2015 (Local Time) from KPEO Reporting Station
Clear Clear  
Wind Chill: -2°   Ceiling: Unl
Heat Index:   Visibility: 10mi
Dew Point:   Wind: 7mph
Humidity: 80%   Direction: 220°SW
Pressure: 30.28"   Gusts: NA
Location:  42.6756°N, 76.8051°W
Report Text: KPEO 290553Z AUTO 22006KT 10SM CLR M13/M16 A3028 RMK AO2 SLP273 T11281156 11117 21211 56004
Loading
Personal Weather Stations






























Interactive Weather Map New forecast layout! Learn more

10-Day Weather Forecast

Advertisements
Track Severe Weather on mobile